createdAt,value
2017-11-26T00:02:23.901Z,99.90
2017-11-26T00:04:51.536Z,99.90
2017-11-26T00:07:19.187Z,99.90
2017-11-26T00:09:46.811Z,99.90
2017-11-26T00:12:14.535Z,99.90
2017-11-26T00:14:42.164Z,99.90
2017-11-26T00:17:09.790Z,99.90
2017-11-26T00:19:38.213Z,99.90
2017-11-26T00:22:05.842Z,99.90
2017-11-26T00:24:33.503Z,99.90
2017-11-26T00:27:01.126Z,99.90
2017-11-26T00:29:28.763Z,99.90
2017-11-26T00:31:56.418Z,99.80
2017-11-26T00:34:24.077Z,98.70
2017-11-26T00:36:51.746Z,98.40
2017-11-26T00:39:19.371Z,99.10
2017-11-26T00:41:46.991Z,98.40
2017-11-26T00:44:14.647Z,98.50
2017-11-26T00:46:42.289Z,98.70
2017-11-26T00:49:09.960Z,99.10
2017-11-26T00:51:37.586Z,99.00
2017-11-26T00:54:05.211Z,98.20
2017-11-26T00:56:33.626Z,98.70
2017-11-26T00:59:01.264Z,98.70
2017-11-26T01:01:28.924Z,98.20
2017-11-26T01:03:56.553Z,98.40
2017-11-26T01:06:24.177Z,98.80
2017-11-26T01:08:51.840Z,99.10
2017-11-26T01:11:19.476Z,99.50
2017-11-26T01:13:47.138Z,99.40
2017-11-26T01:16:14.770Z,99.60
2017-11-26T01:18:42.391Z,99.80
2017-11-26T01:21:10.815Z,98.70
2017-11-26T01:23:38.436Z,98.70
2017-11-26T01:26:06.092Z,98.40
2017-11-26T01:28:33.720Z,97.80
2017-11-26T01:31:01.352Z,98.00
2017-11-26T01:33:29.771Z,98.30
2017-11-26T01:35:57.394Z,98.40
2017-11-26T01:38:25.042Z,99.20
2017-11-26T01:40:52.664Z,99.90
2017-11-26T01:43:20.284Z,99.90
2017-11-26T01:45:47.928Z,99.90
2017-11-26T01:48:15.580Z,99.90
2017-11-26T01:50:43.237Z,99.90
2017-11-26T01:53:11.624Z,99.90
2017-11-26T01:55:39.255Z,99.90
2017-11-26T01:58:06.911Z,99.90
2017-11-26T02:00:34.540Z,99.90
2017-11-26T02:03:02.968Z,99.90
2017-11-26T02:05:30.594Z,99.90
2017-11-26T02:07:58.255Z,99.90
2017-11-26T02:10:25.917Z,99.90
2017-11-26T02:12:53.539Z,99.10
2017-11-26T02:15:21.244Z,99.10
2017-11-26T02:17:49.652Z,98.30
2017-11-26T02:20:17.271Z,98.30
2017-11-26T02:22:44.927Z,98.40
2017-11-26T02:25:12.560Z,98.20
2017-11-26T02:27:40.220Z,98.10
2017-11-26T02:30:07.862Z,98.20
2017-11-26T02:32:47.450Z,97.80
2017-11-26T02:35:27.757Z,98.20
2017-11-26T02:37:55.415Z,98.10
2017-11-26T02:40:23.052Z,97.90
2017-11-26T02:42:50.670Z,97.90
2017-11-26T02:45:18.336Z,97.90
2017-11-26T02:47:46.021Z,98.00
2017-11-26T02:50:13.686Z,97.70
2017-11-26T02:52:42.079Z,97.80
2017-11-26T02:55:09.715Z,97.70
2017-11-26T02:57:37.390Z,98.30
2017-11-26T03:00:05.020Z,98.60
2017-11-26T03:02:32.672Z,98.30
2017-11-26T03:05:00.300Z,98.30
2017-11-26T03:07:27.928Z,98.80
2017-11-26T03:09:56.344Z,99.50
2017-11-26T03:12:23.962Z,99.50
2017-11-26T03:14:51.607Z,99.60
2017-11-26T03:17:19.240Z,99.90
2017-11-26T03:19:46.876Z,99.90
2017-11-26T03:22:15.304Z,99.60
2017-11-26T03:24:42.916Z,99.60
2017-11-26T03:27:10.567Z,99.30
2017-11-26T03:29:38.189Z,99.30
2017-11-26T03:32:05.826Z,99.20
2017-11-26T03:34:34.234Z,99.00
2017-11-26T03:37:01.953Z,99.00
2017-11-26T03:39:29.631Z,97.60
2017-11-26T03:41:57.259Z,97.40
2017-11-26T03:44:24.883Z,96.70
2017-11-26T03:46:52.551Z,96.50
2017-11-26T03:49:20.170Z,96.70
2017-11-26T03:51:48.592Z,95.80
2017-11-26T03:54:16.218Z,95.90
2017-11-26T03:56:43.853Z,94.30
2017-11-26T03:59:11.499Z,94.80
2017-11-26T04:01:39.130Z,95.70
2017-11-26T04:04:06.791Z,96.30
2017-11-26T04:06:34.416Z,94.30
2017-11-26T04:09:02.812Z,93.50
2017-11-26T04:11:30.463Z,93.50
2017-11-26T04:13:58.095Z,93.70
2017-11-26T04:16:25.749Z,95.10
2017-11-26T04:18:53.377Z,92.90
2017-11-26T04:21:20.996Z,92.60
2017-11-26T04:23:48.647Z,92.80
2017-11-26T04:26:17.056Z,92.10
2017-11-26T04:28:44.717Z,92.10
2017-11-26T04:31:12.362Z,91.90
2017-11-26T04:33:39.983Z,92.90
2017-11-26T04:36:07.635Z,94.10
2017-11-26T04:38:35.255Z,92.70
2017-11-26T04:41:03.916Z,94.90
2017-11-26T04:43:32.312Z,94.00
2017-11-26T04:45:59.938Z,93.40
2017-11-26T04:48:27.595Z,91.00
2017-11-26T04:50:55.236Z,92.70
2017-11-26T04:53:23.162Z,93.80
2017-11-26T04:55:50.779Z,92.10
2017-11-26T04:58:18.403Z,91.80
2017-11-26T05:00:46.058Z,91.00
2017-11-26T05:03:13.685Z,90.50
2017-11-26T05:05:41.337Z,92.10
2017-11-26T05:08:08.973Z,91.70
2017-11-26T05:10:36.600Z,91.80
2017-11-26T05:13:05.036Z,92.60
2017-11-26T05:15:32.669Z,92.70
2017-11-26T05:18:00.330Z,92.50
2017-11-26T05:20:27.960Z,91.50
2017-11-26T05:22:55.576Z,91.30
2017-11-26T05:25:23.224Z,91.60
2017-11-26T05:27:50.855Z,90.20
2017-11-26T05:30:19.272Z,87.90
2017-11-26T05:32:46.901Z,87.80
2017-11-26T05:35:14.528Z,90.10
2017-11-26T05:37:42.191Z,89.40
2017-11-26T05:40:09.815Z,89.10
2017-11-26T05:42:37.467Z,87.20
2017-11-26T05:45:05.102Z,86.40
2017-11-26T05:47:32.736Z,87.30
2017-11-26T05:50:01.160Z,89.20
2017-11-26T05:52:28.775Z,89.10
2017-11-26T05:54:56.439Z,87.10
2017-11-26T05:57:24.055Z,87.80
2017-11-26T05:59:51.671Z,86.10
2017-11-26T06:02:19.346Z,85.80
2017-11-26T06:04:46.990Z,85.10
2017-11-26T06:07:14.647Z,83.70
2017-11-26T06:09:42.309Z,87.00
2017-11-26T06:12:09.933Z,89.30
2017-11-26T06:14:37.588Z,86.90
2017-11-26T06:17:05.219Z,88.80
2017-11-26T06:19:36.439Z,84.90
2017-11-26T06:22:04.055Z,84.90
2017-11-26T06:24:31.703Z,85.30
2017-11-26T06:26:59.364Z,87.60
2017-11-26T06:29:26.986Z,83.80
2017-11-26T06:31:54.872Z,85.50
2017-11-26T06:34:23.273Z,82.60
2017-11-26T06:36:50.888Z,82.60
2017-11-26T06:39:18.535Z,83.20
2017-11-26T06:41:46.909Z,81.70
2017-11-26T06:44:15.334Z,81.50
2017-11-26T06:46:47.198Z,81.50
2017-11-26T06:49:14.877Z,84.00
2017-11-26T06:51:42.535Z,84.90
2017-11-26T06:54:10.159Z,82.50
2017-11-26T06:56:37.816Z,82.50
2017-11-26T06:59:05.440Z,83.40
2017-11-26T07:01:33.159Z,82.70
2017-11-26T07:04:04.585Z,83.60
2017-11-26T07:06:32.244Z,82.60
2017-11-26T07:08:59.979Z,82.00
2017-11-26T07:11:27.838Z,82.60
2017-11-26T07:13:55.503Z,82.00
2017-11-26T07:16:23.139Z,82.80
2017-11-26T07:18:50.801Z,85.10
2017-11-26T07:21:18.421Z,81.60
2017-11-26T07:23:46.040Z,81.60
2017-11-26T07:26:14.249Z,81.40
2017-11-26T07:28:41.894Z,80.20
2017-11-26T07:31:10.323Z,80.20
2017-11-26T07:33:37.965Z,80.20
2017-11-26T07:36:05.592Z,79.70
2017-11-26T07:38:35.871Z,79.90
2017-11-26T07:41:04.263Z,80.80
2017-11-26T07:43:31.920Z,78.80
2017-11-26T07:45:59.565Z,79.80
2017-11-26T07:48:27.184Z,78.00
2017-11-26T07:50:55.627Z,77.90
2017-11-26T07:53:23.292Z,77.80
2017-11-26T07:55:51.719Z,76.10
2017-11-26T07:58:19.413Z,76.10
2017-11-26T08:00:47.031Z,76.10
2017-11-26T08:03:14.694Z,74.40
2017-11-26T08:05:42.313Z,73.50
2017-11-26T08:08:15.397Z,73.00
2017-11-26T08:10:43.015Z,72.40
2017-11-26T08:13:10.969Z,71.50
2017-11-26T08:15:38.632Z,74.80
2017-11-26T08:18:06.268Z,75.80
2017-11-26T08:20:33.925Z,74.10
2017-11-26T08:23:01.553Z,72.70
2017-11-26T08:25:29.177Z,68.20
2017-11-26T08:27:56.841Z,67.90
2017-11-26T08:30:24.473Z,67.80
2017-11-26T08:32:57.848Z,66.50
2017-11-26T08:35:25.464Z,58.90
2017-11-26T08:37:53.840Z,64.40
2017-11-26T08:40:23.047Z,62.80
2017-11-26T08:42:50.672Z,62.70
2017-11-26T08:45:18.610Z,64.30
2017-11-26T08:47:46.261Z,65.10
2017-11-26T08:50:14.006Z,62.30
2017-11-26T08:52:42.448Z,68.30
2017-11-26T08:55:10.195Z,68.30
2017-11-26T08:57:38.052Z,67.70
2017-11-26T09:00:05.715Z,68.80
2017-11-26T09:02:35.090Z,67.70
2017-11-26T09:05:02.762Z,67.60
2017-11-26T09:07:34.958Z,70.80
2017-11-26T09:10:02.617Z,70.60
2017-11-26T09:12:30.233Z,72.00
2017-11-26T09:14:57.840Z,72.40
2017-11-26T09:17:26.292Z,67.80
2017-11-26T09:19:53.925Z,67.90
2017-11-26T09:22:21.592Z,64.60
2017-11-26T09:24:49.251Z,65.70
2017-11-26T09:27:17.641Z,61.20
2017-11-26T09:29:45.296Z,61.20
2017-11-26T09:32:12.917Z,61.70
2017-11-26T09:34:41.334Z,63.00
2017-11-26T09:37:08.944Z,63.00
2017-11-26T09:39:36.596Z,60.90
2017-11-26T09:42:04.232Z,62.90
2017-11-26T09:44:31.863Z,58.60
2017-11-26T09:47:00.279Z,42.90
2017-11-26T09:49:27.913Z,42.70
2017-11-26T09:51:55.521Z,41.80
2017-11-26T09:54:23.938Z,35.70
2017-11-26T09:56:51.561Z,35.80
2017-11-26T09:59:19.219Z,41.60
2017-11-26T10:01:46.867Z,33.20
2017-11-26T10:04:14.488Z,37.50
2017-11-26T10:06:42.140Z,37.70
2017-11-26T10:09:09.775Z,40.10
2017-11-26T10:11:37.415Z,42.80
2017-11-26T10:14:05.799Z,51.20
2017-11-26T10:16:33.418Z,51.10
2017-11-26T10:19:01.838Z,53.80
2017-11-26T10:21:29.453Z,54.10
2017-11-26T10:23:57.096Z,42.90
2017-11-26T10:26:24.723Z,36.50
2017-11-26T10:28:52.643Z,34.40
2017-11-26T10:31:20.287Z,40.10
2017-11-26T10:33:47.903Z,45.60
2017-11-26T10:36:15.549Z,49.20
2017-11-26T10:38:43.160Z,48.30
2017-11-26T10:41:11.536Z,55.50
2017-11-26T10:43:39.179Z,55.60
2017-11-26T10:46:07.563Z,46.80
2017-11-26T10:48:35.225Z,46.70
2017-11-26T10:51:02.971Z,53.10
2017-11-26T10:53:30.636Z,51.30
2017-11-26T10:55:58.305Z,53.40
2017-11-26T10:58:25.923Z,50.90
2017-11-26T11:00:53.582Z,54.40
2017-11-26T11:03:21.208Z,50.50
2017-11-26T11:05:48.831Z,55.40
2017-11-26T11:08:16.488Z,48.10
2017-11-26T11:10:44.103Z,52.60
2017-11-26T11:13:12.520Z,53.70
2017-11-26T11:15:40.141Z,53.70
2017-11-26T11:18:07.800Z,54.80
2017-11-26T11:20:35.472Z,55.00
2017-11-26T11:23:03.088Z,54.00
2017-11-26T11:25:30.758Z,53.40
2017-11-26T11:27:58.379Z,53.20
2017-11-26T11:30:25.995Z,54.20
2017-11-26T11:32:54.534Z,52.10
2017-11-26T11:35:22.153Z,52.10
2017-11-26T11:37:49.831Z,51.80
2017-11-26T11:40:17.444Z,51.30
2017-11-26T11:42:45.990Z,51.80
2017-11-26T11:45:13.638Z,55.00
2017-11-26T11:47:41.515Z,52.80
2017-11-26T11:50:09.155Z,50.80
2017-11-26T11:52:36.791Z,55.20
2017-11-26T11:55:04.424Z,54.50
2017-11-26T11:57:32.084Z,59.60
2017-11-26T11:59:59.696Z,52.60
2017-11-26T12:02:28.127Z,51.80
2017-11-26T12:04:55.754Z,51.80
2017-11-26T12:07:23.382Z,53.70
2017-11-26T12:09:51.303Z,53.00
2017-11-26T12:12:26.860Z,51.20
2017-11-26T12:15:02.549Z,54.60
2017-11-26T12:17:38.252Z,55.40
2017-11-26T12:20:06.179Z,53.80
2017-11-26T12:22:33.877Z,52.30
2017-11-26T12:25:01.494Z,52.40
2017-11-26T12:27:29.147Z,55.50
2017-11-26T12:29:58.968Z,54.60
2017-11-26T12:32:26.934Z,52.20
2017-11-26T12:34:54.551Z,55.70
2017-11-26T12:37:23.153Z,49.90
2017-11-26T12:39:50.820Z,52.40
2017-11-26T12:42:18.564Z,52.30
2017-11-26T12:44:46.994Z,50.90
2017-11-26T12:47:14.610Z,50.80
2017-11-26T12:49:42.232Z,51.60
2017-11-26T12:52:10.647Z,52.30
2017-11-26T12:54:38.260Z,52.30
2017-11-26T12:57:06.683Z,51.60
2017-11-26T12:59:34.292Z,49.20
2017-11-26T13:02:01.907Z,52.60
2017-11-26T13:04:29.554Z,48.90
2017-11-26T13:06:57.188Z,41.90
2017-11-26T13:09:25.593Z,39.70
2017-11-26T13:11:53.219Z,39.80
2017-11-26T13:14:20.853Z,38.60
2017-11-26T13:16:48.506Z,42.50
2017-11-26T13:19:17.339Z,39.50
2017-11-26T13:21:45.002Z,42.60
2017-11-26T13:24:13.660Z,43.30
2017-11-26T13:26:42.125Z,43.40
2017-11-26T13:29:09.773Z,43.90
2017-11-26T13:31:37.395Z,44.80
2017-11-26T13:34:11.272Z,45.20
2017-11-26T13:36:38.908Z,42.90
2017-11-26T13:39:06.531Z,35.60
2017-11-26T13:41:34.188Z,35.40
2017-11-26T13:44:01.868Z,35.20
2017-11-26T13:46:35.554Z,37.00
2017-11-26T13:49:03.176Z,41.60
2017-11-26T13:51:30.790Z,45.30
2017-11-26T13:53:59.192Z,45.60
2017-11-26T13:56:26.817Z,45.60
2017-11-26T13:58:59.382Z,45.40
2017-11-26T14:01:28.121Z,46.10
2017-11-26T14:03:56.440Z,45.30
2017-11-26T14:06:30.500Z,46.80
2017-11-26T14:08:58.965Z,48.50
2017-11-26T14:11:31.707Z,48.60
2017-11-26T14:14:00.157Z,48.70
2017-11-26T14:16:27.775Z,50.60
2017-11-26T14:18:55.421Z,51.40
2017-11-26T14:21:23.050Z,51.60
2017-11-26T14:23:53.136Z,52.30
2017-11-26T14:26:23.373Z,52.20
2017-11-26T14:28:51.020Z,54.30
2017-11-26T14:31:18.637Z,56.30
2017-11-26T14:33:47.087Z,52.60
2017-11-26T14:36:17.776Z,52.60
2017-11-26T14:38:47.495Z,53.00
2017-11-26T14:41:15.142Z,56.60
2017-11-26T14:43:42.759Z,54.20
2017-11-26T14:46:10.413Z,54.30
2017-11-26T14:48:38.806Z,57.00
2017-11-26T14:51:10.811Z,54.90
2017-11-26T14:53:38.554Z,55.10
2017-11-26T14:56:06.218Z,54.40
2017-11-26T14:58:38.663Z,54.50
2017-11-26T15:01:06.313Z,53.90
2017-11-26T15:03:33.933Z,54.00
2017-11-26T15:06:01.584Z,55.50
2017-11-26T15:08:29.231Z,57.00
2017-11-26T15:10:56.898Z,56.90
2017-11-26T15:13:24.503Z,57.90
2017-11-26T15:15:52.120Z,57.20
2017-11-26T15:18:19.778Z,56.80
2017-11-26T15:21:00.779Z,59.10
2017-11-26T15:23:28.425Z,57.40
2017-11-26T15:25:56.046Z,59.50
2017-11-26T15:28:24.421Z,57.20
2017-11-26T15:30:52.136Z,57.20
2017-11-26T15:33:20.562Z,58.70
2017-11-26T15:35:48.228Z,58.70
2017-11-26T15:38:16.010Z,57.20
2017-11-26T15:40:43.654Z,57.30
2017-11-26T15:43:11.333Z,60.70
2017-11-26T15:45:39.004Z,60.00
2017-11-26T15:48:06.687Z,57.50
2017-11-26T15:50:34.312Z,58.80
2017-11-26T15:53:01.951Z,58.20
2017-11-26T15:55:29.608Z,59.10
2017-11-26T15:57:57.293Z,57.70
2017-11-26T16:00:25.703Z,59.10
2017-11-26T16:02:53.336Z,59.10
2017-11-26T16:05:20.963Z,58.80
2017-11-26T16:07:48.658Z,59.50
2017-11-26T16:10:16.296Z,58.90
2017-11-26T16:12:43.979Z,59.70
2017-11-26T16:15:11.587Z,58.80
2017-11-26T16:17:39.215Z,58.70
2017-11-26T16:20:06.944Z,59.40
2017-11-26T16:22:35.348Z,59.40
2017-11-26T16:25:03.000Z,59.30
2017-11-26T16:27:30.622Z,59.10
2017-11-26T16:29:58.243Z,58.80
2017-11-26T16:32:26.660Z,61.00
2017-11-26T16:34:54.275Z,61.10
2017-11-26T16:37:21.959Z,61.00
2017-11-26T16:39:49.891Z,61.40
2017-11-26T16:42:17.515Z,59.90
2017-11-26T16:44:45.232Z,60.60
2017-11-26T16:47:12.861Z,60.50
2017-11-26T16:49:40.519Z,61.20
2017-11-26T16:52:08.135Z,60.70
2017-11-26T16:54:35.769Z,60.50
2017-11-26T16:57:03.428Z,59.60
2017-11-26T16:59:31.092Z,60.90
2017-11-26T17:01:58.735Z,62.50
2017-11-26T17:04:26.387Z,60.50
2017-11-26T17:06:54.895Z,60.80
2017-11-26T17:09:26.868Z,63.60
2017-11-26T17:11:54.596Z,63.70
2017-11-26T17:14:22.315Z,62.20
2017-11-26T17:16:51.816Z,64.10
2017-11-26T17:19:20.197Z,63.80
2017-11-26T17:21:49.776Z,63.80
2017-11-26T17:24:18.289Z,63.00
2017-11-26T17:26:48.295Z,62.20
2017-11-26T17:29:16.479Z,62.70
2017-11-26T17:31:44.736Z,63.80
2017-11-26T17:34:12.381Z,63.00
2017-11-26T17:36:41.215Z,63.30
2017-11-26T17:39:08.884Z,64.50
2017-11-26T17:41:36.711Z,63.80
2017-11-26T17:44:04.730Z,64.00
2017-11-26T17:46:32.665Z,63.10
2017-11-26T17:49:00.292Z,63.40
2017-11-26T17:51:28.175Z,61.70
2017-11-26T17:53:55.831Z,63.80
2017-11-26T17:56:23.441Z,63.90
2017-11-26T17:58:51.148Z,61.90
2017-11-26T18:01:18.872Z,62.40
2017-11-26T18:03:46.655Z,61.30
2017-11-26T18:06:14.290Z,61.60
2017-11-26T18:08:41.900Z,63.20
2017-11-26T18:11:09.634Z,63.60
2017-11-26T18:13:38.015Z,62.00
2017-11-26T18:16:05.679Z,62.00
2017-11-26T18:18:33.631Z,61.90
2017-11-26T18:21:01.268Z,62.30
2017-11-26T18:23:29.495Z,60.70
2017-11-26T18:25:57.111Z,61.30
2017-11-26T18:28:24.864Z,60.70
2017-11-26T18:30:52.528Z,62.70
2017-11-26T18:33:20.920Z,62.50
2017-11-26T18:35:49.524Z,63.40
2017-11-26T18:38:17.156Z,63.50
2017-11-26T18:40:44.823Z,62.60
2017-11-26T18:43:14.316Z,62.00
2017-11-26T18:45:41.994Z,62.20
2017-11-26T18:48:10.428Z,62.20
2017-11-26T18:50:38.044Z,62.20
2017-11-26T18:53:05.744Z,64.90
2017-11-26T18:55:37.540Z,63.50
2017-11-26T18:58:05.199Z,63.20
2017-11-26T19:00:32.842Z,62.90
2017-11-26T19:03:00.457Z,63.20
2017-11-26T19:05:28.886Z,62.70
2017-11-26T19:07:56.498Z,62.70
2017-11-26T19:10:24.174Z,61.50
2017-11-26T19:12:51.799Z,63.60
2017-11-26T19:15:19.436Z,64.60
2017-11-26T19:17:47.102Z,64.00
2017-11-26T19:20:14.732Z,63.30
2017-11-26T19:22:42.420Z,64.20
2017-11-26T19:25:11.255Z,63.80
2017-11-26T19:27:39.686Z,63.40
2017-11-26T19:30:07.383Z,65.10
2017-11-26T19:32:35.010Z,64.60
2017-11-26T19:35:02.662Z,64.60
2017-11-26T19:37:30.290Z,65.10
2017-11-26T19:39:57.917Z,62.40
2017-11-26T19:42:26.375Z,64.40
2017-11-26T19:44:54.001Z,64.40
2017-11-26T19:47:21.915Z,64.20
2017-11-26T19:49:50.265Z,64.80
2017-11-26T19:52:18.258Z,65.00
2017-11-26T19:54:45.903Z,65.60
2017-11-26T19:57:14.449Z,65.70
2017-11-26T19:59:42.519Z,65.40
2017-11-26T20:02:10.187Z,64.30
2017-11-26T20:04:38.225Z,63.80
2017-11-26T20:07:06.251Z,63.70
2017-11-26T20:09:34.112Z,65.40
2017-11-26T20:12:02.875Z,65.10
2017-11-26T20:14:30.503Z,65.00
2017-11-26T20:16:58.899Z,66.50
2017-11-26T20:19:26.551Z,66.40
2017-11-26T20:21:55.179Z,63.00
2017-11-26T20:24:23.012Z,65.00
2017-11-26T20:26:50.634Z,64.40
2017-11-26T20:29:18.316Z,66.40
2017-11-26T20:31:45.977Z,64.90
2017-11-26T20:34:15.464Z,65.20
2017-11-26T20:36:43.127Z,65.20
2017-11-26T20:39:10.736Z,65.30
2017-11-26T20:41:38.348Z,66.30
2017-11-26T20:44:06.074Z,67.00
2017-11-26T20:46:33.712Z,66.30
2017-11-26T20:49:01.377Z,64.80
2017-11-26T20:51:29.008Z,66.60
2017-11-26T20:53:56.615Z,65.70
2017-11-26T20:56:24.274Z,66.20
2017-11-26T20:58:52.660Z,65.00
2017-11-26T21:01:20.316Z,64.90
2017-11-26T21:03:47.937Z,65.80
2017-11-26T21:06:16.320Z,65.50
2017-11-26T21:08:43.976Z,65.50
2017-11-26T21:11:11.597Z,66.00
2017-11-26T21:13:39.291Z,66.30
2017-11-26T21:16:06.936Z,64.50
2017-11-26T21:18:34.551Z,65.00
2017-11-26T21:21:02.191Z,65.20
2017-11-26T21:23:29.808Z,65.30
2017-11-26T21:25:58.355Z,65.70
2017-11-26T21:28:25.983Z,65.70
2017-11-26T21:30:54.240Z,65.70
2017-11-26T21:33:21.891Z,64.80
2017-11-26T21:35:49.512Z,66.40
2017-11-26T21:38:17.188Z,65.10
2017-11-26T21:40:44.846Z,65.90
2017-11-26T21:43:12.463Z,65.60
2017-11-26T21:45:40.112Z,65.40
2017-11-26T21:48:07.728Z,65.40
2017-11-26T21:50:35.380Z,65.30
2017-11-26T21:53:03.013Z,65.10
2017-11-26T21:55:30.644Z,66.40
2017-11-26T21:57:58.326Z,66.40
2017-11-26T22:00:26.003Z,66.10
2017-11-26T22:02:53.661Z,65.20
2017-11-26T22:05:21.698Z,67.00
2017-11-26T22:07:49.331Z,67.20
2017-11-26T22:10:17.010Z,65.60
2017-11-26T22:12:45.636Z,66.50
2017-11-26T22:15:13.286Z,67.20
2017-11-26T22:17:40.928Z,67.20
2017-11-26T22:20:12.589Z,67.10
2017-11-26T22:22:40.254Z,65.80
2017-11-26T22:25:07.880Z,66.30
2017-11-26T22:27:35.530Z,65.60
2017-11-26T22:30:03.743Z,66.90
2017-11-26T22:32:32.178Z,64.60
2017-11-26T22:34:59.824Z,64.50
2017-11-26T22:37:27.448Z,64.70
2017-11-26T22:39:55.100Z,64.70
2017-11-26T22:42:23.309Z,66.10
2017-11-26T22:44:51.741Z,66.20
2017-11-26T22:47:19.376Z,66.00
2017-11-26T22:49:46.992Z,65.90
2017-11-26T22:52:14.639Z,66.40
2017-11-26T22:54:42.268Z,65.40
2017-11-26T22:57:10.732Z,66.60
2017-11-26T22:59:39.123Z,67.70
2017-11-26T23:02:06.776Z,67.50
2017-11-26T23:04:47.020Z,66.00
2017-11-26T23:07:14.636Z,67.00
2017-11-26T23:09:43.068Z,68.30
2017-11-26T23:12:10.707Z,68.40
2017-11-26T23:14:38.346Z,67.20
2017-11-26T23:17:06.381Z,67.40
2017-11-26T23:19:34.024Z,67.20
2017-11-26T23:22:01.660Z,67.90
2017-11-26T23:24:29.310Z,67.90
2017-11-26T23:26:56.945Z,67.30
2017-11-26T23:29:24.612Z,67.90
2017-11-26T23:31:52.228Z,67.90
2017-11-26T23:34:20.613Z,67.50
2017-11-26T23:36:48.324Z,67.50
2017-11-26T23:39:16.715Z,67.50
2017-11-26T23:41:44.379Z,67.50
2017-11-26T23:44:12.002Z,69.00
2017-11-26T23:46:39.630Z,67.70
2017-11-26T23:49:08.071Z,68.80
2017-11-26T23:51:35.686Z,68.80
2017-11-26T23:54:03.586Z,68.20
2017-11-26T23:56:31.231Z,67.10
2017-11-26T23:58:58.874Z,65.90
